Portada
METAR-TAF:

METAR-TAF

Aeroports :

Aeroport de Jiddah Rei Abdulaziz

Jiddah, Aràbia Saudita

latitud: 21-42N, longitud: 039-11E, altitud: 15 m

Observació

L'informe es va fer fa 52 minuts, a les 10:00 UTC
Vent 10 kt del Oest/Nord-Oest
Temperatura 26°C
Humitat 45%
Pressió 1013 hPa
Visibilitat 10 km o més
sense núvols per sota de 1500 mi sense presència de cumulonimbus.

METAR: OEJN 211000Z 29010KT CAVOK 26/13 Q1013 NOSIG

Hora: 13:52 (10:52 UTC)

Pronòstic

L'informe es va fer fa 5 hores i 52 minuts, a les 05:00 UTC
Pronòstic vàlid del 21 a les 06 UTC al 22 a les 12 UTC
Vent 13 kt del Oest
Visibilitat 10 km o més
Escasses núvols a una alçada de 4000 ft
Evolucionant progressivament
l' 21 a les 18 UTC al 21 a les 20 UTC
Vent 8 kt del Est/Nord-Est

TAF: OEJN 210500Z 2106/2212 27013KT 9999 FEW040 BECMG 2118/2120 06008KT

Observacions i pronòstics meteorològics de més de 4000 aeroports (METAR i TAF).

Les estacions disponibles són els punts grocs i vermells al mapa.

Posi el ratolí al punt desitjat per veure el nom de l'estació.

Feu clic per veure les observacions i els pronòstics meteorològics.

Per canviar el mapa: feu clic els botons verds amb una creu de color negre per apropar; al botó verd amb un guió per allunyar la imatge; o en les fletxes verdes per a mapes adjacents.


METAR-TAF: